Time;durP1;ratioP1;P1;durP2;ratioP2;P2;SDS_P1;SDS_P2;PMS_P1;PMS_P2;Temp;Humidity;BMP_temperature;BMP_pressure;BME280_temperature;BME280_humidity;BME280_pressure;Samples;Min_cycle;Max_cycle;Signal;HPM_P1;HPM_P2
2021/01/30 00:00:06;;;;;;;0.77;0.60;;;;;;;8.36;61.98;96886.53;5012581;28;20118;-64
2021/01/30 00:02:31;;;;;;;0.80;0.77;;;;;;;8.25;62.87;96913.25;5012479;28;20026;-65
2021/01/30 00:04:57;;;;;;;0.40;0.40;;;;;;;8.32;62.33;96892.66;5013993;28;20033;-65
2021/01/30 00:07:22;;;;;;;0.53;0.53;;;;;;;8.34;63.55;96890.84;5012525;28;20034;-65
2021/01/30 00:09:50;;;;;;;0.87;0.87;;;;;;;8.30;63.48;96877.38;5013263;28;20053;-65
2021/01/30 00:12:15;;;;;;;2.20;0.57;;;;;;;8.20;63.85;96888.78;5011493;28;20113;-65
2021/01/30 00:14:41;;;;;;;0.90;0.77;;;;;;;8.22;64.03;96876.81;5013935;28;20519;-64
2021/01/30 00:17:08;;;;;;;0.70;0.57;;;;;;;8.23;63.60;96883.59;5012126;28;20165;-64
2021/01/30 00:19:34;;;;;;;3.47;0.60;;;;;;;8.22;63.86;96882.75;5014231;28;20362;-64
2021/01/30 00:22:06;;;;;;;1.93;0.70;;;;;;;8.21;64.19;96898.94;5016614;28;20366;-64
2021/01/30 00:24:32;;;;;;;0.70;0.67;;;;;;;8.05;65.11;96892.75;5037430;28;20450;-65
2021/01/30 00:27:00;;;;;;;1.77;0.83;;;;;;;8.09;65.84;96884.09;5036198;28;20033;-65
2021/01/30 00:29:29;;;;;;;0.93;0.60;;;;;;;8.09;65.00;96886.66;4997770;28;20057;-65
2021/01/30 00:31:54;;;;;;;0.60;0.60;;;;;;;8.12;65.34;96886.53;4996514;28;20092;-65
2021/01/30 00:34:22;;;;;;;1.37;0.83;;;;;;;8.15;64.86;96886.41;5014794;28;20030;-65
2021/01/30 00:36:55;;;;;;;0.70;0.70;;;;;;;8.17;65.05;96886.34;5015041;28;20353;-65
2021/01/30 00:39:21;;;;;;;2.10;0.60;;;;;;;8.23;64.08;96888.69;5016305;28;20093;-65
2021/01/30 00:41:46;;;;;;;0.80;0.80;;;;;;;8.32;64.06;96900.31;5016041;28;20034;-65
2021/01/30 00:44:13;;;;;;;0.50;0.50;;;;;;;8.32;63.35;96885.00;5031411;28;20030;-65
2021/01/30 00:46:40;;;;;;;1.60;0.87;;;;;;;8.33;63.17;96889.19;5035898;28;20346;-65
2021/01/30 00:49:05;;;;;;;0.50;0.50;;;;;;;8.33;62.92;96892.56;5021072;28;20030;-65
2021/01/30 00:51:31;;;;;;;0.63;0.63;;;;;;;8.32;63.34;96893.47;5016384;28;20107;-65
2021/01/30 00:53:56;;;;;;;0.73;0.57;;;;;;;8.25;63.58;96903.06;5015465;28;20026;-65
2021/01/30 00:56:22;;;;;;;0.60;0.60;;;;;;;8.20;63.64;96914.31;5016321;28;20033;-65
2021/01/30 00:58:47;;;;;;;0.50;0.50;;;;;;;8.30;62.79;96919.94;5014633;28;20069;-65
2021/01/30 01:01:13;;;;;;;0.50;0.50;;;;;;;8.36;62.25;96906.97;5015282;28;20164;-64
2021/01/30 01:03:39;;;;;;;0.67;0.60;;;;;;;8.40;62.39;96903.41;5015070;28;20048;-65
2021/01/30 01:06:05;;;;;;;0.50;0.50;;;;;;;8.40;62.14;96908.50;5015102;28;20033;-64
2021/01/30 01:08:30;;;;;;;1.43;0.50;;;;;;;8.45;62.59;96906.59;5015008;28;20048;-64
2021/01/30 01:10:57;;;;;;;0.50;0.50;;;;;;;8.36;62.42;96917.97;5016343;28;20370;-64
2021/01/30 01:13:22;;;;;;;0.50;0.50;;;;;;;8.41;62.12;96918.66;5015137;28;20085;-65
2021/01/30 01:15:47;;;;;;;0.60;0.60;;;;;;;8.38;61.96;96929.00;5014604;28;20480;-65
2021/01/30 01:18:13;;;;;;;1.90;0.80;;;;;;;8.46;61.23;96918.47;5015130;28;20112;-64
2021/01/30 01:20:39;;;;;;;0.47;0.47;;;;;;;8.45;61.11;96919.34;5013939;28;20113;-64
2021/01/30 01:23:05;;;;;;;0.57;0.57;;;;;;;8.49;60.89;96903.88;5015404;28;20041;-64
2021/01/30 01:25:30;;;;;;;1.27;1.27;;;;;;;8.45;61.67;96911.69;5014365;28;20120;-64
2021/01/30 01:27:56;;;;;;;0.60;0.60;;;;;;;8.42;61.51;96905.00;5015312;28;20026;-64
2021/01/30 01:30:23;;;;;;;0.70;0.70;;;;;;;8.43;61.91;96908.38;5014588;28;20034;-64
2021/01/30 01:32:50;;;;;;;0.70;0.70;;;;;;;8.41;61.79;96907.59;5013235;28;20061;-64
2021/01/30 01:35:24;;;;;;;0.47;0.47;;;;;;;8.47;61.51;96889.50;5014730;28;20041;-64
2021/01/30 01:37:51;;;;;;;0.50;0.50;;;;;;;8.44;61.41;96899.84;5015119;28;20147;-64
2021/01/30 01:40:17;;;;;;;0.57;0.57;;;;;;;8.44;61.82;96902.41;5015073;28;20260;-64
2021/01/30 01:42:43;;;;;;;0.67;0.60;;;;;;;8.36;61.38;96900.13;5013628;28;20029;-63
2021/01/30 01:45:09;;;;;;;1.20;0.67;;;;;;;8.32;61.93;96902.88;5015296;28;20036;-64
2021/01/30 01:47:39;;;;;;;0.57;0.57;;;;;;;8.37;61.75;96903.50;5013709;28;20347;-64
2021/01/30 01:50:17;;;;;;;0.50;0.50;;;;;;;8.41;61.80;96908.44;5014577;28;20030;-66
2021/01/30 01:52:43;;;;;;;0.50;0.50;;;;;;;8.25;63.01;96905.59;5026444;28;20041;-64
2021/01/30 01:55:13;;;;;;;1.50;1.30;;;;;;;8.30;61.86;96899.53;5035178;28;20108;-64
2021/01/30 01:57:43;;;;;;;0.40;0.40;;;;;;;8.23;62.65;96888.69;5023624;28;20037;-64
2021/01/30 02:00:09;;;;;;;2.20;1.00;;;;;;;8.24;62.22;96903.09;5015133;28;20025;-65
2021/01/30 02:02:35;;;;;;;0.40;0.40;;;;;;;8.23;61.40;96888.69;5014142;28;20307;-65
2021/01/30 02:05:10;;;;;;;0.67;0.63;;;;;;;8.30;60.85;96882.50;5014921;28;20079;-65
2021/01/30 02:07:38;;;;;;;0.30;0.30;;;;;;;8.27;61.38;96893.59;5013926;28;20130;-65
2021/01/30 02:10:08;;;;;;;0.40;0.40;;;;;;;8.27;61.42;96880.84;5014413;28;20029;-65
2021/01/30 02:12:33;;;;;;;0.50;0.50;;;;;;;8.27;61.72;96875.72;5013801;28;20041;-65
2021/01/30 02:14:59;;;;;;;0.40;0.40;;;;;;;8.18;61.84;96877.81;5014920;28;20029;-65
2021/01/30 02:18:08;;;;;;;0.50;0.40;;;;;;;8.05;62.49;96863.84;5013864;28;20046;-65
2021/01/30 02:21:24;;;;;;;0.43;0.43;;;;;;;8.00;62.72;96865.75;5014154;28;20042;-65
2021/01/30 02:24:08;;;;;;;0.50;0.50;;;;;;;8.22;61.95;96877.66;4991282;28;20065;-65
2021/01/30 02:27:11;;;;;;;0.67;0.50;;;;;;;8.28;61.65;96879.13;5014286;28;20107;-65
2021/01/30 02:29:39;;;;;;;0.40;0.40;;;;;;;8.23;61.71;96879.28;5011971;28;20104;-65
2021/01/30 02:32:44;;;;;;;0.50;0.50;;;;;;;8.31;62.20;96870.56;5014518;28;20095;-65
2021/01/30 02:35:21;;;;;;;0.40;0.40;;;;;;;8.26;62.16;96866.44;5013421;28;20454;-65
2021/01/30 02:37:49;;;;;;;0.40;0.40;;;;;;;8.06;62.87;96878.28;5015396;28;20165;-65
2021/01/30 02:40:20;;;;;;;0.50;0.50;;;;;;;7.93;63.97;96865.16;5012879;28;20022;-65
2021/01/30 02:43:00;;;;;;;0.40;0.40;;;;;;;7.82;64.35;96868.06;5014558;28;20184;-65
2021/01/30 02:45:28;;;;;;;0.60;0.60;;;;;;;7.68;64.93;96866.94;5012385;28;20346;-65
2021/01/30 02:48:01;;;;;;;0.50;0.50;;;;;;;7.59;66.04;96868.09;5014362;28;20561;-65
2021/01/30 02:50:35;;;;;;;0.73;0.73;;;;;;;7.50;66.65;96878.59;5016827;28;20029;-65
2021/01/30 02:53:05;;;;;;;0.70;0.70;;;;;;;7.35;67.31;96879.13;5020453;28;20037;-65
2021/01/30 02:55:32;;;;;;;0.60;0.60;;;;;;;7.32;67.77;96879.22;5014228;28;20465;-65
2021/01/30 02:57:59;;;;;;;0.60;0.60;;;;;;;7.26;68.08;96877.72;5014240;28;20033;-65
2021/01/30 03:00:26;;;;;;;0.63;0.30;;;;;;;7.52;65.35;96873.44;5014216;28;20026;-65
2021/01/30 03:02:52;;;;;;;0.30;0.30;;;;;;;7.81;64.50;96865.56;5014703;28;20033;-65
2021/01/30 03:05:19;;;;;;;0.33;0.33;;;;;;;7.95;64.21;96865.91;5012888;28;20028;-64
2021/01/30 03:07:47;;;;;;;0.23;0.23;;;;;;;8.00;64.17;96878.50;5014297;28;20026;-64
2021/01/30 03:10:30;;;;;;;0.87;0.87;;;;;;;8.02;63.77;96879.28;5011035;28;20022;-65
2021/01/30 03:13:13;;;;;;;0.30;0.30;;;;;;;7.91;63.52;96861.81;5013070;28;20065;-65
2021/01/30 03:15:50;;;;;;;0.30;0.30;;;;;;;8.20;62.55;96876.88;5013146;28;20033;-65
2021/01/30 03:18:18;;;;;;;0.40;0.40;;;;;;;8.16;63.14;96865.09;5014345;28;20080;-64
2021/01/30 03:20:46;;;;;;;0.43;0.43;;;;;;;8.10;63.12;96867.06;5012519;28;20025;-64
2021/01/30 03:23:14;;;;;;;0.50;0.50;;;;;;;8.14;63.23;96854.13;5011644;28;20018;-65
2021/01/30 03:25:41;;;;;;;1.43;0.40;;;;;;;8.14;63.08;96851.59;5013814;28;20057;-65
2021/01/30 03:28:07;;;;;;;0.30;0.30;;;;;;;8.01;63.45;96852.09;5014248;28;20346;-64
2021/01/30 03:30:33;;;;;;;3.30;0.40;;;;;;;7.93;63.74;96859.22;5013749;28;20025;-64
2021/01/30 03:33:01;;;;;;;0.67;0.47;;;;;;;7.89;62.90;96850.84;5012375;28;20026;-65
2021/01/30 03:35:27;;;;;;;0.20;0.20;;;;;;;8.07;62.70;96856.94;5013661;28;20370;-65
2021/01/30 03:37:52;;;;;;;0.40;0.40;;;;;;;8.13;62.80;96843.97;5013017;28;20049;-65
2021/01/30 03:40:19;;;;;;;0.30;0.30;;;;;;;8.16;62.78;96867.66;5013026;28;20030;-65
2021/01/30 03:42:45;;;;;;;0.80;0.40;;;;;;;8.02;63.35;96869.09;5013937;28;20451;-65
2021/01/30 03:45:13;;;;;;;0.37;0.37;;;;;;;8.09;62.89;96870.50;5007771;28;20030;-64
2021/01/30 03:47:39;;;;;;;0.40;0.40;;;;;;;8.14;62.07;96864.34;5007846;28;20354;-63
2021/01/30 03:50:07;;;;;;;0.70;0.70;;;;;;;8.27;60.75;96870.63;5012311;28;20029;-62
2021/01/30 03:52:32;;;;;;;0.40;0.40;;;;;;;8.34;60.83;96860.22;5007321;28;20046;-64
2021/01/30 03:54:58;;;;;;;0.47;0.47;;;;;;;8.29;60.62;96865.50;5014541;28;20040;-64
2021/01/30 03:57:23;;;;;;;0.43;0.43;;;;;;;8.39;60.20;96861.72;5015936;28;20110;-64
2021/01/30 03:59:49;;;;;;;0.53;0.53;;;;;;;8.42;59.83;96855.66;5016650;28;20037;-64
2021/01/30 04:02:15;;;;;;;0.30;0.30;;;;;;;8.52;59.93;96862.06;5016879;28;20036;-64
2021/01/30 04:04:43;;;;;;;0.37;0.37;;;;;;;8.56;59.68;96841.47;5009198;28;20030;-65
2021/01/30 04:07:09;;;;;;;0.30;0.30;;;;;;;8.58;59.12;96862.66;5003157;28;20030;-65
2021/01/30 04:09:34;;;;;;;0.30;0.30;;;;;;;8.53;59.59;96856.88;5001976;28;20489;-64
2021/01/30 04:12:00;;;;;;;1.03;0.40;;;;;;;8.59;59.37;96860.94;5006408;28;20065;-65
2021/01/30 04:14:25;;;;;;;0.30;0.30;;;;;;;8.58;59.41;96856.69;5017043;28;20430;-65
2021/01/30 04:16:50;;;;;;;0.30;0.30;;;;;;;8.46;59.72;96854.63;5017165;28;20022;-65
2021/01/30 04:19:16;;;;;;;0.40;0.40;;;;;;;8.52;59.89;96854.41;5017171;28;20089;-64
2021/01/30 04:21:41;;;;;;;0.40;0.40;;;;;;;8.50;60.04;96881.72;5016837;28;20358;-64
2021/01/30 04:24:07;;;;;;;0.40;0.40;;;;;;;8.53;59.60;96863.75;5017095;28;20070;-64
2021/01/30 04:26:32;;;;;;;0.47;0.47;;;;;;;8.55;59.23;96860.22;5016724;28;20029;-64
2021/01/30 04:28:58;;;;;;;0.30;0.30;;;;;;;8.43;59.69;96850.50;5016632;28;20022;-67
2021/01/30 04:31:23;;;;;;;0.30;0.30;;;;;;;8.41;60.01;96851.41;5016509;28;20037;-67
2021/01/30 04:33:50;;;;;;;0.40;0.40;;;;;;;8.42;60.10;96850.53;5017008;28;20113;-67
2021/01/30 04:36:16;;;;;;;0.40;0.40;;;;;;;8.52;59.74;96833.97;5014726;28;20450;-67
2021/01/30 04:38:42;;;;;;;0.30;0.30;;;;;;;8.39;59.87;96794.50;5014961;28;20132;-67
2021/01/30 04:41:10;;;;;;;2.00;0.50;;;;;;;8.30;60.25;96823.78;5016615;28;20550;-68
2021/01/30 04:43:56;;;;;;;0.47;0.47;;;;;;;8.39;60.08;96833.63;5014655;28;20187;-67
2021/01/30 04:46:40;;;;;;;0.40;0.40;;;;;;;8.41;59.61;96810.56;5017053;28;20435;-68
2021/01/30 04:49:27;;;;;;;0.40;0.40;;;;;;;8.43;59.60;96829.22;5014225;28;20410;-66
2021/01/30 04:51:56;;;;;;;1.33;0.40;;;;;;;8.40;60.22;96821.69;5017487;28;20026;-67
2021/01/30 04:54:29;;;;;;;0.50;0.50;;;;;;;8.47;60.00;96828.22;5014435;28;20132;-67
2021/01/30 04:57:03;;;;;;;0.40;0.40;;;;;;;8.46;59.97;96801.84;5016269;28;20451;-67
2021/01/30 04:59:43;;;;;;;0.33;0.33;;;;;;;8.39;59.77;96823.41;5021281;28;20034;-67
2021/01/30 05:02:33;;;;;;;0.23;0.23;;;;;;;8.33;60.32;96815.97;5036721;28;20512;-67
2021/01/30 05:05:00;;;;;;;0.43;0.43;;;;;;;8.42;60.40;96805.41;5030912;28;20022;-67
2021/01/30 05:07:47;;;;;;;0.40;0.40;;;;;;;8.30;60.81;96807.63;5015832;28;20030;-68
2021/01/30 05:10:21;;;;;;;0.50;0.50;;;;;;;8.28;60.06;96821.22;5015108;28;20041;-67
2021/01/30 05:12:51;;;;;;;0.57;0.40;;;;;;;8.34;60.17;96799.78;5017302;28;20345;-68
2021/01/30 05:15:30;;;;;;;0.93;0.40;;;;;;;8.37;60.16;96819.25;5015258;28;20025;-67
2021/01/30 05:18:00;;;;;;;0.30;0.27;;;;;;;8.39;59.62;96817.47;5015354;28;20030;-67
2021/01/30 05:20:30;;;;;;;0.40;0.40;;;;;;;8.27;60.47;96813.66;5020205;28;20033;-68
2021/01/30 05:22:57;;;;;;;0.30;0.30;;;;;;;8.26;60.39;96820.47;5036811;28;20455;-67
2021/01/30 05:25:24;;;;;;;0.40;0.40;;;;;;;8.32;60.78;96811.75;5034810;28;20389;-67
2021/01/30 05:28:13;;;;;;;0.30;0.30;;;;;;;8.32;60.58;96821.97;5036292;28;20112;-67
2021/01/30 05:31:19;;;;;;;0.87;0.87;;;;;;;8.32;60.43;96816.88;5012277;28;20045;-67
2021/01/30 05:34:00;;;;;;;;;;;;;;;8.35;60.34;96798.06;5007619;28;20048;-68
2021/01/30 05:36:42;;;;;;;0.30;0.30;;;;;;;8.37;60.15;96803.94;5031132;28;19952;-67
2021/01/30 05:39:21;;;;;;;0.30;0.30;;;;;;;8.40;59.89;96794.41;5033265;28;20025;-67
2021/01/30 05:42:29;;;;;;;0.30;0.30;;;;;;;8.42;60.18;96807.13;5034546;28;20022;-67
2021/01/30 05:45:16;;;;;;;0.40;0.40;;;;;;;8.40;60.37;96803.81;5014543;28;20354;-67
2021/01/30 05:47:45;;;;;;;0.53;0.40;;;;;;;8.41;59.44;96790.13;5014496;28;20034;-64
2021/01/30 05:50:19;;;;;;;0.43;0.20;;;;;;;8.50;59.30;96844.25;5015024;28;20036;-64
2021/01/30 05:52:45;;;;;;;0.57;0.57;;;;;;;8.60;58.03;96814.06;5014549;28;20026;-64
2021/01/30 05:55:29;;;;;;;1.00;0.90;;;;;;;8.64;58.31;96802.84;5014441;28;20327;-65
2021/01/30 05:57:57;;;;;;;1.90;1.50;;;;;;;8.60;57.54;96812.34;5014482;28;20022;-65
2021/01/30 06:00:24;;;;;;;4.30;2.37;;;;;;;8.53;57.86;96805.81;4997465;28;20041;-65
2021/01/30 06:03:03;;;;;;;1.13;0.60;;;;;;;8.56;56.89;96817.63;5015207;28;20030;-65
2021/01/30 06:05:38;;;;;;;0.70;0.70;;;;;;;8.66;56.13;96821.47;5013606;28;20108;-65
2021/01/30 06:08:24;;;;;;;1.13;1.00;;;;;;;8.71;56.65;96817.84;5015336;28;20030;-65
2021/01/30 06:11:13;;;;;;;0.60;0.60;;;;;;;8.67;56.00;96821.41;5013782;28;20025;-64
2021/01/30 06:13:55;;;;;;;0.60;0.60;;;;;;;8.66;55.26;96804.41;5011415;28;20061;-65
2021/01/30 06:16:41;;;;;;;0.80;0.80;;;;;;;8.66;55.68;96816.34;5014031;28;20018;-66
2021/01/30 06:19:14;;;;;;;3.15;1.20;;;;;;;8.63;56.07;96822.44;5014593;28;20060;-65
2021/01/30 06:21:40;;;;;;;1.30;1.00;;;;;;;8.59;55.51;96820.06;5013983;28;20091;-65
2021/01/30 06:24:11;;;;;;;1.93;1.00;;;;;;;8.55;56.21;96833.84;5014844;28;20033;-65
2021/01/30 06:26:57;;;;;;;0.63;0.63;;;;;;;8.55;55.86;96795.53;5013943;28;20111;-66
2021/01/30 06:29:27;;;;;;;;;;;;;;;8.56;54.92;96807.41;5014938;28;20069;-66
2021/01/30 06:31:53;;;;;;;0.70;0.70;;;;;;;8.52;55.43;96804.16;5013704;28;20235;-65
2021/01/30 06:34:24;;;;;;;0.63;0.63;;;;;;;8.55;54.72;96803.19;5015214;28;20643;-65
2021/01/30 06:36:52;;;;;;;1.83;1.23;;;;;;;8.66;54.68;96799.31;5017213;28;20486;-65
2021/01/30 06:39:28;;;;;;;0.77;0.50;;;;;;;8.65;54.79;96799.41;5022052;28;20022;-65
2021/01/30 06:41:56;;;;;;;0.40;0.40;;;;;;;8.58;55.16;96805.63;5014552;28;20048;-64
2021/01/30 06:44:30;;;;;;;0.40;0.40;;;;;;;8.63;53.83;96808.81;5013927;28;20402;-66
2021/01/30 06:47:13;;;;;;;1.57;1.13;;;;;;;8.66;54.46;96806.13;5013537;28;20113;-65
2021/01/30 06:49:43;;;;;;;0.87;0.33;;;;;;;8.61;55.15;96787.63;5014946;28;20140;-64
2021/01/30 06:52:27;;;;;;;1.27;1.17;;;;;;;8.57;55.26;96791.22;5013492;28;20050;-65
2021/01/30 06:55:04;;;;;;;0.40;0.40;;;;;;;8.55;54.62;96806.59;5014924;28;20033;-66
2021/01/30 06:57:32;;;;;;;0.33;0.33;;;;;;;8.48;55.54;96806.91;5011893;28;20029;-66
2021/01/30 07:00:05;;;;;;;0.43;0.40;;;;;;;8.50;55.28;96818.72;5014504;28;20359;-64
2021/01/30 07:02:41;;;;;;;0.73;0.50;;;;;;;8.48;55.90;96801.78;5011192;28;20133;-64
2021/01/30 07:05:32;;;;;;;0.40;0.40;;;;;;;8.44;55.76;96801.09;5014271;28;20014;-65
2021/01/30 07:08:25;;;;;;;0.50;0.50;;;;;;;8.44;55.64;96830.91;5014614;28;20044;-65
2021/01/30 07:11:21;;;;;;;0.30;0.30;;;;;;;8.49;55.19;96828.97;5014249;28;20117;-65
2021/01/30 07:13:52;;;;;;;;;;;;;;;8.49;55.84;96823.88;5014183;28;20045;-65
2021/01/30 07:16:23;;;;;;;249.27;225.63;;;;;;;8.35;56.04;96823.59;5013606;28;20016;-65
2021/01/30 07:19:02;;;;;;;0.50;0.50;;;;;;;8.53;55.19;96833.09;5013150;28;20033;-66
2021/01/30 07:21:34;;;;;;;2.60;0.77;;;;;;;8.65;55.49;96810.44;5014032;28;20061;-65
2021/01/30 07:24:36;;;;;;;1.80;0.40;;;;;;;8.71;55.47;96820.41;5013500;28;20358;-65
2021/01/30 07:27:13;;;;;;;0.50;0.50;;;;;;;8.80;55.45;96813.25;5013224;28;20033;-65
2021/01/30 07:29:49;;;;;;;135.20;126.83;;;;;;;8.82;54.91;96817.41;4995890;28;20034;-66
2021/01/30 07:32:34;;;;;;;78.43;74.60;;;;;;;8.90;54.97;96820.50;4997266;28;20041;-64
2021/01/30 07:35:17;;;;;;;95.00;90.10;;;;;;;8.80;54.83;96785.13;5015045;28;20474;-65
2021/01/30 07:37:47;;;;;;;347.87;315.43;;;;;;;8.92;55.21;96808.47;5016138;28;20288;-65
2021/01/30 07:40:46;;;;;;;294.47;269.00;;;;;;;9.07;53.65;96781.44;5017530;28;20033;-65
2021/01/30 07:43:23;;;;;;;322.90;287.50;;;;;;;9.15;53.80;96782.78;5016545;28;20026;-62
2021/01/30 07:46:14;;;;;;;362.13;198.70;;;;;;;9.06;53.63;96788.28;5017688;28;20038;-62
2021/01/30 07:48:53;;;;;;;410.70;190.13;;;;;;;9.07;53.54;96789.94;5017293;28;20500;-61
2021/01/30 07:51:41;;;;;;;2.37;0.40;;;;;;;9.04;55.32;96767.03;5016740;28;20284;-63
2021/01/30 07:54:07;;;;;;;28.37;22.10;;;;;;;9.09;54.67;96771.97;4987929;28;20038;-63
2021/01/30 07:56:59;;;;;;;0.50;0.50;;;;;;;9.13;54.76;96766.66;4997454;28;20033;-63
2021/01/30 07:59:46;;;;;;;343.83;195.93;;;;;;;9.18;53.97;96753.69;4998037;28;20026;-63
2021/01/30 08:02:36;;;;;;;442.30;216.80;;;;;;;9.26;53.57;96769.50;5000145;28;20061;-62
2021/01/30 08:05:10;;;;;;;0.83;0.50;;;;;;;9.31;53.69;96765.03;5017477;28;20038;-63
2021/01/30 08:07:50;;;;;;;331.33;183.33;;;;;;;9.30;53.49;96742.91;5016367;28;20026;-63
2021/01/30 08:10:15;;;;;;;0.40;0.40;;;;;;;9.35;53.51;96753.75;5017880;28;20272;-62
2021/01/30 08:13:34;;;;;;;0.40;0.40;;;;;;;9.41;52.84;96765.47;5014874;28;20101;-62
2021/01/30 08:16:16;;;;;;;0.50;0.50;;;;;;;9.52;53.50;96719.75;4991887;28;20030;-63
2021/01/30 08:18:44;;;;;;;0.50;0.50;;;;;;;9.55;51.99;96727.28;4990668;28;20195;-62
2021/01/30 08:21:09;;;;;;;166.93;99.43;;;;;;;9.46;52.43;96763.53;4995527;28;20038;-62
2021/01/30 08:24:10;;;;;;;338.33;133.70;;;;;;;9.57;53.32;96746.81;4994143;28;20703;-63
2021/01/30 08:26:44;;;;;;;302.58;128.57;;;;;;;9.69;52.02;96739.47;4981062;28;20085;-61
2021/01/30 08:29:20;;;;;;;0.40;0.40;;;;;;;9.61;52.69;96744.94;4994379;28;20026;-62
2021/01/30 08:31:51;;;;;;;36.37;33.20;;;;;;;9.69;51.43;96719.81;4993997;28;20056;-62
2021/01/30 08:34:19;;;;;;;30.13;27.60;;;;;;;9.68;51.97;96753.97;4995018;28;20031;-63
2021/01/30 08:36:52;;;;;;;0.50;0.50;;;;;;;9.61;51.84;96758.56;4995079;28;20050;-62
2021/01/30 08:39:31;;;;;;;128.30;119.90;;;;;;;9.70;51.47;96744.50;4994907;28;20034;-62
2021/01/30 08:42:07;;;;;;;1.03;0.80;;;;;;;9.75;50.78;96757.09;4994132;28;20114;-64
2021/01/30 08:44:50;;;;;;;264.00;235.33;;;;;;;9.64;51.42;96772.94;4995109;28;20112;-64
2021/01/30 08:47:21;;;;;;;6.07;5.57;;;;;;;9.66;51.55;96757.50;4998921;28;20030;-64
2021/01/30 08:49:59;;;;;;;255.23;230.53;;;;;;;9.60;52.26;96772.25;5016213;28;20134;-62
2021/01/30 08:52:36;;;;;;;273.20;248.77;;;;;;;9.59;52.42;96773.13;5016423;28;20030;-63
2021/01/30 08:55:47;;;;;;;374.50;341.00;;;;;;;9.57;52.26;96771.56;4996538;28;20056;-62
2021/01/30 08:58:37;;;;;;;307.27;282.90;;;;;;;9.61;51.51;96780.75;5000166;28;20053;-63
2021/01/30 09:01:10;;;;;;;404.50;366.63;;;;;;;9.53;52.40;96775.97;5014173;28;20017;-62
2021/01/30 09:03:44;;;;;;;430.67;391.50;;;;;;;9.58;52.34;96784.28;5015214;28;20037;-63
2021/01/30 09:06:41;;;;;;;496.90;344.60;;;;;;;9.62;52.45;96803.72;5014804;28;20032;-62
2021/01/30 09:09:24;;;;;;;486.80;355.00;;;;;;;9.68;52.54;96809.44;5015814;28;20018;-62
2021/01/30 09:12:02;;;;;;;473.10;287.10;;;;;;;9.69;51.84;96799.13;5015446;28;20029;-63
2021/01/30 09:14:28;;;;;;;410.20;367.27;;;;;;;9.68;51.71;96819.66;5015179;28;20062;-63
2021/01/30 09:17:25;;;;;;;392.07;360.97;;;;;;;9.79;51.92;96807.25;5015366;28;20100;-63
2021/01/30 09:20:08;;;;;;;291.53;265.87;;;;;;;9.73;51.74;96820.28;5016517;28;20018;-63
2021/01/30 09:22:38;;;;;;;449.03;404.40;;;;;;;9.67;52.22;96823.16;5015259;28;20041;-62
2021/01/30 09:25:12;;;;;;;455.13;392.07;;;;;;;9.59;52.03;96816.63;5015751;28;20482;-64
2021/01/30 09:27:57;;;;;;;253.70;237.73;;;;;;;9.69;51.78;96858.00;5013936;28;20026;-62
2021/01/30 09:30:40;;;;;;;3.72;1.83;;;;;;;9.79;52.06;96833.66;5011753;28;20034;-64
2021/01/30 09:33:20;;;;;;;502.70;388.57;;;;;;;9.85;51.31;96820.56;5012771;28;20022;-62
2021/01/30 09:35:46;;;;;;;205.40;192.73;;;;;;;9.92;51.10;96833.94;5011359;28;20120;-63
2021/01/30 09:38:23;;;;;;;489.10;330.20;;;;;;;10.04;50.31;96835.94;5013244;28;20085;-63
2021/01/30 09:40:49;;;;;;;319.70;290.53;;;;;;;10.08;50.80;96847.69;5009785;28;20095;-63
2021/01/30 09:43:21;;;;;;;0.83;0.57;;;;;;;10.20;50.44;96854.03;5013860;28;20022;-63
2021/01/30 09:45:51;;;;;;;1.03;0.80;;;;;;;10.15;50.19;96871.28;5011733;28;20025;-64
2021/01/30 09:48:18;;;;;;;4.50;1.90;;;;;;;10.23;50.38;96879.47;5013749;28;20765;-63
2021/01/30 09:50:54;;;;;;;3.37;1.73;;;;;;;10.16;50.42;96875.53;5013703;28;20105;-63
2021/01/30 09:53:32;;;;;;;0.77;0.77;;;;;;;10.33;51.25;96873.88;5013494;28;20026;-62
2021/01/30 09:56:32;;;;;;;286.07;264.97;;;;;;;10.41;51.01;96888.88;5013791;28;20500;-63
2021/01/30 09:58:59;;;;;;;353.23;314.80;;;;;;;10.08;51.04;96910.00;5005582;28;20030;-63
2021/01/30 10:01:28;;;;;;;1.50;1.23;;;;;;;10.08;51.58;96875.88;5013924;28;20033;-63
2021/01/30 10:03:54;;;;;;;3.57;1.93;;;;;;;9.95;51.66;96893.50;5012443;28;20021;-64
2021/01/30 10:06:33;;;;;;;4.87;4.37;;;;;;;10.11;51.99;96901.31;5013398;28;20037;-63
2021/01/30 10:09:20;;;;;;;22.83;20.43;;;;;;;10.11;52.25;96873.16;5013112;28;20072;-64
2021/01/30 10:11:50;;;;;;;437.63;398.97;;;;;;;10.10;51.78;96874.88;5011562;28;20022;-64
2021/01/30 10:14:19;;;;;;;274.57;256.97;;;;;;;9.90;52.25;96892.88;5013527;28;20044;-64
2021/01/30 10:16:58;;;;;;;377.70;331.73;;;;;;;9.95;51.71;96882.44;5010098;28;20331;-63
2021/01/30 10:19:28;;;;;;;5.07;2.83;;;;;;;10.00;51.50;96883.91;5010605;28;20021;-63
2021/01/30 10:21:54;;;;;;;48.43;45.90;;;;;;;10.12;51.41;96879.94;5013428;28;20030;-62
2021/01/30 10:24:24;;;;;;;102.63;93.27;;;;;;;10.09;49.62;96878.38;5014072;28;20022;-62
2021/01/30 10:26:53;;;;;;;4.60;2.10;;;;;;;10.24;49.21;96870.91;5014558;28;20044;-62
2021/01/30 10:29:21;;;;;;;2.60;1.87;;;;;;;10.21;49.58;96905.19;5014939;28;20021;-64
2021/01/30 10:31:54;;;;;;;3.23;1.87;;;;;;;10.29;49.09;96871.53;5014084;28;20053;-62
2021/01/30 10:34:36;;;;;;;55.50;51.37;;;;;;;10.56;49.34;96859.19;5014283;28;20686;-63
2021/01/30 10:37:12;;;;;;;356.67;291.27;;;;;;;10.50;48.38;96867.97;5013703;28;20124;-63
2021/01/30 10:39:45;;;;;;;1.10;0.60;;;;;;;10.44;48.02;96847.75;5013591;28;20349;-63
2021/01/30 10:42:19;;;;;;;2.07;0.90;;;;;;;10.38;48.95;96837.81;5013126;28;20049;-63
2021/01/30 10:44:46;;;;;;;2.87;1.57;;;;;;;10.63;48.83;96822.94;5012489;28;20038;-63
2021/01/30 10:47:13;;;;;;;3.30;1.33;;;;;;;10.75;47.94;96824.06;5014052;28;20069;-61
2021/01/30 10:49:40;;;;;;;134.07;122.23;;;;;;;10.76;47.99;96839.38;5013914;28;20037;-62
2021/01/30 10:52:13;;;;;;;1.57;1.47;;;;;;;10.99;47.20;96833.94;5013708;28;20442;-62
2021/01/30 10:54:42;;;;;;;1.48;1.38;;;;;;;10.83;46.98;96838.16;5013918;28;20417;-62
2021/01/30 10:57:16;;;;;;;1.30;0.77;;;;;;;10.88;47.06;96838.78;5013923;28;20026;-61
2021/01/30 10:59:56;;;;;;;2.17;1.60;;;;;;;10.79;47.21;96836.66;5013794;28;20018;-62
2021/01/30 11:02:37;;;;;;;0.60;0.60;;;;;;;10.97;47.05;96835.75;5017254;28;20617;-62
2021/01/30 11:05:26;;;;;;;1.90;1.13;;;;;;;10.76;47.80;96848.78;5016988;28;20032;-62
2021/01/30 11:08:00;;;;;;;0.90;0.90;;;;;;;10.67;48.35;96844.09;5009945;28;20025;-62
2021/01/30 11:10:26;;;;;;;0.93;0.82;;;;;;;10.45;49.01;96852.81;5013869;28;20037;-62
2021/01/30 11:12:52;;;;;;;0.97;0.70;;;;;;;10.34;50.51;96880.66;5013445;28;20034;-63
2021/01/30 11:15:22;;;;;;;1.13;0.70;;;;;;;10.27;50.71;96861.34;5014001;28;20026;-63
2021/01/30 11:17:48;;;;;;;162.53;152.67;;;;;;;10.40;51.49;96856.47;5012316;28;20026;-62
2021/01/30 11:20:44;;;;;;;62.10;57.47;;;;;;;10.49;51.37;96859.44;5013763;28;20458;-62
2021/01/30 11:23:11;;;;;;;96.22;87.78;;;;;;;10.39;51.36;96865.09;5013480;28;20030;-62
2021/01/30 11:25:41;;;;;;;125.70;114.77;;;;;;;10.73;51.43;96862.59;5013486;28;20033;-62
2021/01/30 11:28:08;;;;;;;29.83;22.63;;;;;;;10.88;51.26;96866.97;5013132;28;20501;-62
2021/01/30 11:30:34;;;;;;;4.87;1.97;;;;;;;10.88;52.31;96872.09;5013696;28;20029;-62
2021/01/30 11:33:08;;;;;;;5.95;2.50;;;;;;;10.61;53.88;96868.28;5011979;28;20099;-62
2021/01/30 11:35:40;;;;;;;210.43;196.80;;;;;;;10.40;55.34;96871.84;5013907;28;20057;-61
2021/01/30 11:38:27;;;;;;;373.40;337.03;;;;;;;10.06;57.84;96878.50;5013308;28;20385;-61
2021/01/30 11:40:56;;;;;;;7.30;4.87;;;;;;;10.05;58.81;96884.53;5013017;28;20026;-62
2021/01/30 11:43:23;;;;;;;4.87;2.57;;;;;;;9.87;58.29;96879.38;5012051;28;20034;-61
2021/01/30 11:45:49;;;;;;;7.93;2.93;;;;;;;9.81;59.25;96872.81;5013774;28;20036;-62
2021/01/30 11:48:15;;;;;;;7.73;3.67;;;;;;;9.50;59.68;96872.50;5012688;28;20025;-62
2021/01/30 11:50:41;;;;;;;16.37;15.13;;;;;;;9.48;58.94;96871.72;5013647;28;20026;-61
2021/01/30 11:53:15;;;;;;;23.53;21.97;;;;;;;9.53;59.27;96854.44;5012729;28;20439;-62
2021/01/30 11:55:41;;;;;;;11.17;10.13;;;;;;;9.58;58.82;96860.19;5014006;28;20052;-62
2021/01/30 11:58:07;;;;;;;9.27;7.20;;;;;;;9.46;58.34;96846.19;5011801;28;20358;-62
2021/01/30 12:00:32;;;;;;;23.57;21.70;;;;;;;9.39;58.25;96839.69;5012494;28;20040;-61
2021/01/30 12:02:59;;;;;;;40.00;37.73;;;;;;;9.29;58.49;96840.16;5020192;28;20029;-62